createdAt,value
2022-09-02T00:01:20.105Z,101619.44
2022-09-02T00:03:47.449Z,101614.22
2022-09-02T00:06:15.338Z,101617.22
2022-09-02T00:08:43.159Z,101618.56
2022-09-02T00:11:16.453Z,101618.91
2022-09-02T00:13:43.813Z,101615.13
2022-09-02T00:16:11.507Z,101614.88
2022-09-02T00:18:39.591Z,101610.22
2022-09-02T00:21:13.569Z,101615.66
2022-09-02T00:23:42.182Z,101606.94
2022-09-02T00:26:08.805Z,101617.56
2022-09-02T00:28:35.522Z,101614.22
2022-09-02T00:31:02.203Z,101611.38
2022-09-02T00:33:28.994Z,101613.22
2022-09-02T00:35:55.737Z,101612.88
2022-09-02T00:38:22.268Z,101602.78
2022-09-02T00:40:50.554Z,101597.88
2022-09-02T00:43:43.583Z,101600.19
2022-09-02T00:46:11.671Z,101608.63
2022-09-02T00:48:43.564Z,101598.34
2022-09-02T00:51:11.809Z,101595.66
2022-09-02T00:53:41.101Z,101593.97
2022-09-02T00:56:15.909Z,101598.22
2022-09-02T00:58:43.353Z,101600.28
2022-09-02T01:01:11.664Z,101593.78
2022-09-02T01:03:40.410Z,101593.75
2022-09-02T01:09:47.377Z,101582.81
2022-09-02T01:12:16.246Z,101589.59
2022-09-02T01:14:42.960Z,101587.44
2022-09-02T01:17:09.716Z,101586.31
2022-09-02T01:19:40.375Z,101583.69
2022-09-02T01:22:17.764Z,101587.22
2022-09-02T01:24:44.237Z,101579.78
2022-09-02T01:27:15.449Z,101583.06
2022-09-02T01:29:41.961Z,101577.59
2022-09-02T01:32:08.611Z,101587.44
2022-09-02T01:34:35.121Z,101583.63
2022-09-02T01:37:01.653Z,101579.69
2022-09-02T01:39:28.197Z,101580.91
2022-09-02T01:41:54.729Z,101582.91
2022-09-02T01:44:21.793Z,101584.69
2022-09-02T01:46:48.345Z,101586.84
2022-09-02T01:49:14.824Z,101579.03
2022-09-02T01:51:41.383Z,101588.56
2022-09-02T01:54:07.878Z,101586.72
2022-09-02T01:56:34.425Z,101581.31
2022-09-02T01:59:02.365Z,101577.78
2022-09-02T02:01:29.560Z,101576.88
2022-09-02T02:03:56.125Z,101570.16
2022-09-02T02:06:22.935Z,101574.91
2022-09-02T02:08:49.391Z,101575.53
2022-09-02T02:11:24.196Z,101573.78
2022-09-02T02:13:50.762Z,101577.84
2022-09-02T02:16:17.393Z,101583.06
2022-09-02T02:18:43.902Z,101571.06
2022-09-02T02:21:11.376Z,101572.81
2022-09-02T02:23:37.926Z,101566.06
2022-09-02T02:26:04.481Z,101574.94
2022-09-02T02:28:31.127Z,101571.72
2022-09-02T02:30:59.968Z,101574.78
2022-09-02T02:33:36.031Z,101574.63
2022-09-02T02:36:05.206Z,101570.25
2022-09-02T02:38:33.953Z,101561.16
2022-09-02T02:41:02.037Z,101573.94
2022-09-02T02:43:28.601Z,101572.03
2022-09-02T02:45:55.108Z,101575.19
2022-09-02T02:48:22.170Z,101558.78
2022-09-02T02:50:48.722Z,101565.25
2022-09-02T02:53:17.493Z,101563.41
2022-09-02T02:55:44.898Z,101570.34
2022-09-02T02:58:17.129Z,101563.53
2022-09-02T03:00:46.218Z,101564.47
2022-09-02T03:03:12.809Z,101566.63
2022-09-02T03:05:40.039Z,101561.63
2022-09-02T03:08:08.648Z,101573.09
2022-09-02T03:10:36.468Z,101563.78
2022-09-02T03:13:03.374Z,101571.84
2022-09-02T03:15:30.261Z,101565.78
2022-09-02T03:17:57.092Z,101562.50
2022-09-02T03:20:24.914Z,101554.78
2022-09-02T03:22:55.291Z,101552.78
2022-09-02T03:25:23.195Z,101555.72
2022-09-02T03:27:51.575Z,101554.56
2022-09-02T03:30:25.193Z,101559.19
2022-09-02T03:32:58.389Z,101554.19
2022-09-02T03:35:28.451Z,101550.97
2022-09-02T03:37:55.789Z,101559.91
2022-09-02T03:40:26.410Z,101551.28
2022-09-02T03:42:59.276Z,101552.56
2022-09-02T03:45:26.794Z,101553.19
2022-09-02T03:47:55.818Z,101546.81
2022-09-02T03:50:30.120Z,101542.97
2022-09-02T03:52:57.671Z,101558.56
2022-09-02T03:55:24.526Z,101545.16
2022-09-02T03:57:51.026Z,101548.22
2022-09-02T04:00:20.539Z,101549.78
2022-09-02T04:02:50.227Z,101549.34
2022-09-02T04:05:17.711Z,101555.16
2022-09-02T04:07:46.902Z,101549.19
2022-09-02T04:10:14.561Z,101556.81
2022-09-02T04:12:41.186Z,101551.06
2022-09-02T04:15:09.823Z,101553.88
2022-09-02T04:17:38.223Z,101557.84
2022-09-02T04:20:07.166Z,101559.47
2022-09-02T04:22:34.137Z,101557.63
2022-09-02T04:25:00.647Z,101554.88
2022-09-02T04:27:27.581Z,101558.63
2022-09-02T04:29:54.116Z,101561.00
2022-09-02T04:32:21.708Z,101556.53
2022-09-02T04:34:49.853Z,101560.47
2022-09-02T04:37:16.765Z,101561.94
2022-09-02T04:39:43.318Z,101556.53
2022-09-02T04:42:09.798Z,101552.72
2022-09-02T04:44:36.462Z,101557.19
2022-09-02T04:47:03.065Z,101560.09
2022-09-02T04:49:32.110Z,101555.34
2022-09-02T04:52:00.204Z,101552.47
2022-09-02T04:54:27.199Z,101552.47
2022-09-02T04:56:53.945Z,101562.13
2022-09-02T04:59:21.296Z,101556.66
2022-09-02T05:01:49.849Z,101555.59
2022-09-02T05:04:16.660Z,101558.41
2022-09-02T05:06:44.545Z,101563.78
2022-09-02T05:09:11.633Z,101558.13
2022-09-02T05:11:38.748Z,101571.31
2022-09-02T05:14:07.127Z,101564.63
2022-09-02T05:16:40.105Z,101560.72
2022-09-02T05:19:09.696Z,101568.78
2022-09-02T05:21:40.593Z,101569.44
2022-09-02T05:24:07.108Z,101571.78
2022-09-02T05:26:36.184Z,101576.50
2022-09-02T05:29:06.963Z,101579.28
2022-09-02T05:31:34.128Z,101582.50
2022-09-02T05:34:00.796Z,101568.50
2022-09-02T05:36:27.408Z,101571.75
2022-09-02T05:38:54.397Z,101580.13
2022-09-02T05:41:23.542Z,101583.28
2022-09-02T05:43:52.474Z,101573.06
2022-09-02T05:46:22.315Z,101578.50
2022-09-02T05:49:17.702Z,101572.19
2022-09-02T05:51:50.067Z,101573.13
2022-09-02T05:54:24.109Z,101570.81
2022-09-02T05:56:53.832Z,101571.88
2022-09-02T05:59:22.190Z,101571.34
2022-09-02T06:01:49.484Z,101575.34
2022-09-02T06:04:17.187Z,101568.50
2022-09-02T06:06:43.771Z,101571.47
2022-09-02T06:09:12.779Z,101566.94
2022-09-02T06:11:44.611Z,101570.94
2022-09-02T06:14:13.961Z,101573.66
2022-09-02T06:16:42.045Z,101573.25
2022-09-02T06:19:09.115Z,101576.50
2022-09-02T06:21:37.716Z,101579.06
2022-09-02T06:24:08.850Z,101574.16
2022-09-02T06:26:37.018Z,101572.28
2022-09-02T06:29:04.987Z,101573.47
2022-09-02T06:31:34.599Z,101582.50
2022-09-02T06:34:01.428Z,101578.25
2022-09-02T06:36:31.276Z,101576.75
2022-09-02T06:39:00.190Z,101571.28
2022-09-02T06:41:30.332Z,101578.50
2022-09-02T06:44:00.093Z,101574.13
2022-09-02T06:46:30.668Z,101571.09
2022-09-02T06:48:57.529Z,101577.03
2022-09-02T06:51:30.317Z,101576.44
2022-09-02T06:53:57.052Z,101574.91
2022-09-02T06:56:23.906Z,101570.56
2022-09-02T06:58:50.598Z,101570.31
2022-09-02T07:01:26.289Z,101571.66
2022-09-02T07:04:11.567Z,101571.53
2022-09-02T07:06:42.276Z,101569.03
2022-09-02T07:09:11.542Z,101573.16
2022-09-02T07:11:38.650Z,101573.88
2022-09-02T07:14:05.433Z,101583.16
2022-09-02T07:16:36.763Z,101583.72
2022-09-02T07:19:05.635Z,101584.72
2022-09-02T07:21:36.255Z,101583.25
2022-09-02T07:24:03.145Z,101585.59
2022-09-02T07:26:29.936Z,101577.25
2022-09-02T07:28:56.553Z,101574.84
2022-09-02T07:31:23.580Z,101576.28
2022-09-02T07:33:50.756Z,101581.25
2022-09-02T07:36:21.483Z,101586.13
2022-09-02T07:38:48.242Z,101579.34
2022-09-02T07:41:14.813Z,101582.66
2022-09-02T07:43:41.394Z,101584.00
2022-09-02T07:46:08.141Z,101585.41
2022-09-02T07:48:34.920Z,101577.66
2022-09-02T07:51:02.021Z,101583.44
2022-09-02T07:53:29.179Z,101587.09
2022-09-02T07:55:55.927Z,101584.59
2022-09-02T07:58:23.666Z,101589.56
2022-09-02T08:00:51.208Z,101585.00
2022-09-02T08:03:17.942Z,101583.88
2022-09-02T08:05:47.064Z,101581.41
2022-09-02T08:08:15.967Z,101585.13
2022-09-02T08:10:42.952Z,101579.88
2022-09-02T08:13:10.515Z,101577.13
2022-09-02T08:15:37.298Z,101580.09
2022-09-02T08:18:05.012Z,101583.59
2022-09-02T08:20:31.506Z,101576.63
2022-09-02T08:23:10.652Z,101580.50
2022-09-02T08:25:39.471Z,101575.84
2022-09-02T08:28:05.967Z,101571.91
2022-09-02T08:30:32.618Z,101570.22
2022-09-02T08:32:59.276Z,101575.22
2022-09-02T08:35:25.966Z,101572.84
2022-09-02T08:37:52.506Z,101570.63
2022-09-02T08:40:28.776Z,101576.69
2022-09-02T08:42:56.459Z,101568.53
2022-09-02T08:45:32.438Z,101573.97
2022-09-02T08:48:12.805Z,101569.34
2022-09-02T08:50:43.716Z,101570.13
2022-09-02T08:53:19.227Z,101571.09
2022-09-02T08:55:49.126Z,101576.72
2022-09-02T08:58:18.931Z,101564.72
2022-09-02T09:01:00.732Z,101570.59
2022-09-02T09:03:37.143Z,101559.25
2022-09-02T09:06:23.541Z,101568.34
2022-09-02T09:09:17.534Z,101564.28
2022-09-02T09:12:01.806Z,101556.72
2022-09-02T09:14:52.629Z,101552.19
2022-09-02T09:17:28.226Z,101543.50
2022-09-02T09:19:59.046Z,101549.81
2022-09-02T09:22:31.338Z,101545.25
2022-09-02T09:24:58.739Z,101546.84
2022-09-02T09:27:25.984Z,101535.09
2022-09-02T09:29:53.335Z,101535.97
2022-09-02T09:32:30.122Z,101532.53
2022-09-02T09:35:03.517Z,101532.03
2022-09-02T09:37:37.406Z,101538.16
2022-09-02T09:40:20.530Z,101536.25
2022-09-02T09:43:14.516Z,101527.78
2022-09-02T09:45:51.723Z,101528.31
2022-09-02T09:48:30.700Z,101524.47
2022-09-02T09:50:57.226Z,101521.66
2022-09-02T09:53:25.649Z,101523.66
2022-09-02T09:55:56.805Z,101512.06
2022-09-02T09:58:30.819Z,101517.28
2022-09-02T10:01:00.529Z,101516.19
2022-09-02T10:03:32.975Z,101521.03
2022-09-02T10:06:18.343Z,101520.38
2022-09-02T10:09:00.334Z,101512.03
2022-09-02T10:11:29.675Z,101512.03
2022-09-02T10:14:02.213Z,101505.94
2022-09-02T10:16:37.712Z,101515.09
2022-09-02T10:19:10.202Z,101510.09
2022-09-02T10:22:04.400Z,101506.22
2022-09-02T10:25:19.252Z,101505.47
2022-09-02T10:28:14.151Z,101504.25
2022-09-02T10:30:57.580Z,101502.88
2022-09-02T10:33:44.591Z,101507.00
2022-09-02T10:36:28.650Z,101499.88
2022-09-02T10:39:04.290Z,101490.84
2022-09-02T10:45:07.331Z,101490.47
2022-09-02T10:47:38.510Z,101491.47
2022-09-02T10:50:22.980Z,101498.78
2022-09-02T10:53:17.248Z,101488.50
2022-09-02T10:56:05.492Z,101490.09
2022-09-02T10:58:55.882Z,101489.13
2022-09-02T11:01:28.925Z,101496.47
2022-09-02T11:04:22.641Z,101487.28
2022-09-02T11:07:02.533Z,101484.56
2022-09-02T11:09:50.441Z,101484.69
2022-09-02T11:12:32.311Z,101478.28
2022-09-02T11:15:20.162Z,101476.94
2022-09-02T11:18:00.542Z,101468.22
2022-09-02T11:20:38.850Z,101478.50
2022-09-02T11:23:30.663Z,101462.53
2022-09-02T11:26:10.705Z,101474.22
2022-09-02T11:29:14.194Z,101474.19
2022-09-02T11:31:44.390Z,101477.78
2022-09-02T11:34:20.040Z,101475.13
2022-09-02T11:36:46.686Z,101473.97
2022-09-02T11:39:30.632Z,101475.41
2022-09-02T11:42:00.213Z,101469.38
2022-09-02T11:44:56.769Z,101468.34
2022-09-02T11:47:27.510Z,101468.28
2022-09-02T11:50:21.842Z,101470.03
2022-09-02T11:52:54.206Z,101471.25
2022-09-02T11:55:39.982Z,101469.22
2022-09-02T11:58:06.587Z,101465.13
2022-09-02T12:00:55.779Z,101462.94
2022-09-02T12:03:46.648Z,101455.75
2022-09-02T12:06:19.346Z,101446.63
2022-09-02T12:08:46.860Z,101450.16
2022-09-02T12:11:39.772Z,101443.00
2022-09-02T12:14:09.987Z,101440.94
2022-09-02T12:16:40.845Z,101439.47
2022-09-02T12:19:10.669Z,101435.72
2022-09-02T12:22:15.279Z,101433.53
2022-09-02T12:25:26.992Z,101426.22
2022-09-02T12:28:10.869Z,101425.13
2022-09-02T12:31:02.079Z,101435.59
2022-09-02T12:33:34.798Z,101422.22
2022-09-02T12:36:04.757Z,101428.06
2022-09-02T12:38:32.596Z,101423.72
2022-09-02T12:41:04.956Z,101418.84
2022-09-02T12:44:02.250Z,101410.50
2022-09-02T12:46:48.471Z,101401.63
2022-09-02T12:49:46.836Z,101406.94
2022-09-02T12:52:36.195Z,101401.91
2022-09-02T12:55:18.231Z,101405.25
2022-09-02T12:57:48.332Z,101404.47
2022-09-02T13:00:27.942Z,101405.94
2022-09-02T13:03:14.204Z,101397.69
2022-09-02T13:05:49.748Z,101396.28
2022-09-02T13:08:51.038Z,101395.41
2022-09-02T13:11:39.044Z,101388.72
2022-09-02T13:14:27.264Z,101393.28
2022-09-02T13:17:36.607Z,101381.06
2022-09-02T13:20:20.076Z,101381.91
2022-09-02T13:22:55.532Z,101383.47
2022-09-02T13:25:46.377Z,101384.69
2022-09-02T13:28:18.778Z,101387.34
2022-09-02T13:31:22.202Z,101385.13
2022-09-02T13:34:11.795Z,101376.53
2022-09-02T13:36:44.748Z,101383.72
2022-09-02T13:39:19.612Z,101386.81
2022-09-02T13:41:47.454Z,101375.72
2022-09-02T13:44:27.030Z,101363.28
2022-09-02T13:47:02.397Z,101374.91
2022-09-02T13:49:37.896Z,101360.00
2022-09-02T13:52:11.807Z,101354.31
2022-09-02T13:54:48.359Z,101355.34
2022-09-02T13:57:21.484Z,101352.22
2022-09-02T13:59:51.696Z,101352.44
2022-09-02T14:02:35.752Z,101341.59
2022-09-02T14:05:22.622Z,101330.41
2022-09-02T14:07:53.372Z,101332.13
2022-09-02T14:10:23.704Z,101326.44
2022-09-02T14:12:51.338Z,101329.38
2022-09-02T14:15:31.147Z,101324.97
2022-09-02T14:18:30.868Z,101333.75
2022-09-02T14:21:09.733Z,101337.56
2022-09-02T14:23:40.453Z,101326.19
2022-09-02T14:26:07.156Z,101320.38
2022-09-02T14:28:35.510Z,101327.28
2022-09-02T14:31:08.419Z,101324.56
2022-09-02T14:33:43.368Z,101327.28
2022-09-02T14:36:17.737Z,101326.25
2022-09-02T14:38:47.023Z,101318.81
2022-09-02T14:41:20.322Z,101318.09
2022-09-02T14:43:50.397Z,101315.94
2022-09-02T14:46:32.976Z,101316.91
2022-09-02T14:48:59.416Z,101309.66
2022-09-02T14:51:47.785Z,101310.63
2022-09-02T14:54:37.631Z,101313.91
2022-09-02T14:57:04.976Z,101311.84
2022-09-02T14:59:31.563Z,101314.34
2022-09-02T15:01:59.377Z,101318.09
2022-09-02T15:04:26.881Z,101313.38
2022-09-02T15:06:53.476Z,101309.50
2022-09-02T15:09:20.168Z,101312.16
2022-09-02T15:11:53.280Z,101304.75
2022-09-02T15:14:19.787Z,101299.56
2022-09-02T15:16:46.317Z,101303.44
2022-09-02T15:19:12.844Z,101298.63
2022-09-02T15:21:40.395Z,101303.44
2022-09-02T15:24:07.001Z,101304.06
2022-09-02T15:26:33.450Z,101298.34
2022-09-02T15:28:59.920Z,101307.16
2022-09-02T15:31:26.547Z,101292.59
2022-09-02T15:33:53.137Z,101299.75
2022-09-02T15:36:21.167Z,101307.69
2022-09-02T15:38:47.668Z,101307.78
2022-09-02T15:41:23.362Z,101287.38
2022-09-02T15:43:53.744Z,101298.50
2022-09-02T15:46:25.833Z,101290.50
2022-09-02T15:48:53.334Z,101294.72
2022-09-02T15:51:22.766Z,101297.09
2022-09-02T15:54:05.132Z,101296.81
2022-09-02T15:56:33.373Z,101302.94
2022-09-02T15:59:02.166Z,101302.13
2022-09-02T16:01:34.110Z,101298.56
2022-09-02T16:04:02.450Z,101298.88
2022-09-02T16:06:29.771Z,101295.31
2022-09-02T16:08:56.569Z,101293.69
2022-09-02T16:11:23.793Z,101297.25
2022-09-02T16:13:50.890Z,101295.84
2022-09-02T16:16:17.792Z,101297.75
2022-09-02T16:18:45.252Z,101293.53
2022-09-02T16:21:12.997Z,101291.88
2022-09-02T16:23:39.679Z,101295.44
2022-09-02T16:26:22.923Z,101289.16
2022-09-02T16:28:51.132Z,101292.91
2022-09-02T16:31:20.013Z,101288.09
2022-09-02T16:33:55.706Z,101280.97
2022-09-02T16:36:23.902Z,101279.72
2022-09-02T16:38:53.450Z,101281.31
2022-09-02T16:41:28.263Z,101275.25
2022-09-02T16:43:57.093Z,101271.88
2022-09-02T16:46:24.935Z,101280.56
2022-09-02T16:48:52.044Z,101271.59
2022-09-02T16:51:18.913Z,101269.91
2022-09-02T16:53:46.413Z,101267.34
2022-09-02T16:56:14.322Z,101277.09
2022-09-02T16:58:41.579Z,101267.03
2022-09-02T17:01:13.817Z,101264.91
2022-09-02T17:03:41.843Z,101263.03
2022-09-02T17:06:09.068Z,101266.41
2022-09-02T17:08:35.533Z,101261.16
2022-09-02T17:11:22.315Z,101260.22
2022-09-02T17:13:55.873Z,101258.91
2022-09-02T17:16:25.006Z,101273.03
2022-09-02T17:18:52.145Z,101266.72
2022-09-02T17:21:25.360Z,101270.34
2022-09-02T17:23:52.310Z,101276.72
2022-09-02T17:26:21.544Z,101269.44
2022-09-02T17:28:48.770Z,101272.25
2022-09-02T17:31:22.009Z,101269.28
2022-09-02T17:33:49.660Z,101281.63
2022-09-02T17:36:16.773Z,101269.94
2022-09-02T17:38:43.590Z,101272.94
2022-09-02T17:41:28.960Z,101276.19
2022-09-02T17:43:55.528Z,101276.63
2022-09-02T17:46:22.319Z,101276.16
2022-09-02T17:49:15.457Z,101277.09
2022-09-02T17:51:35.685Z,101267.50
2022-09-02T17:54:02.783Z,101270.63
2022-09-02T17:56:32.213Z,101276.03
2022-09-02T17:59:27.788Z,101275.59
2022-09-02T18:02:12.733Z,101266.41
2022-09-02T18:04:42.029Z,101278.78
2022-09-02T18:07:28.507Z,101274.25
2022-09-02T18:09:55.424Z,101272.44
2022-09-02T18:12:21.954Z,101274.81
2022-09-02T18:14:54.615Z,101278.66
2022-09-02T18:17:40.414Z,101283.69
2022-09-02T18:20:10.526Z,101288.28
2022-09-02T18:22:49.791Z,101286.97
2022-09-02T18:25:31.541Z,101284.47
2022-09-02T18:28:06.874Z,101284.53
2022-09-02T18:30:48.994Z,101293.25
2022-09-02T18:33:56.207Z,101291.69
2022-09-02T18:36:48.972Z,101286.78
2022-09-02T18:39:21.234Z,101280.81
2022-09-02T18:42:26.227Z,101285.88
2022-09-02T18:45:04.989Z,101304.06
2022-09-02T18:47:36.446Z,101300.63
2022-09-02T18:50:05.984Z,101304.19
2022-09-02T18:52:34.558Z,101296.63
2022-09-02T18:55:09.944Z,101304.00
2022-09-02T18:57:43.817Z,101309.91
2022-09-02T19:00:13.380Z,101308.13
2022-09-02T19:03:02.413Z,101310.31
2022-09-02T19:05:31.196Z,101312.25
2022-09-02T19:08:27.098Z,101316.66
2022-09-02T19:11:01.791Z,101311.59
2022-09-02T19:13:30.073Z,101313.50
2022-09-02T19:16:04.118Z,101314.78
2022-09-02T19:18:31.544Z,101312.38
2022-09-02T19:20:58.849Z,101313.09
2022-09-02T19:23:26.880Z,101317.53
2022-09-02T19:25:53.621Z,101319.19
2022-09-02T19:28:22.053Z,101321.34
2022-09-02T19:30:51.023Z,101318.72
2022-09-02T19:33:17.636Z,101319.09
2022-09-02T19:35:49.085Z,101322.66
2022-09-02T19:38:18.615Z,101321.97
2022-09-02T19:40:49.363Z,101325.91
2022-09-02T19:43:16.726Z,101330.09
2022-09-02T19:45:44.156Z,101334.31
2022-09-02T19:48:11.513Z,101325.63
2022-09-02T19:50:43.557Z,101337.88
2022-09-02T19:53:16.219Z,101334.88
2022-09-02T19:55:42.972Z,101339.03
2022-09-02T19:58:09.507Z,101331.50
2022-09-02T20:00:36.171Z,101329.75
2022-09-02T20:03:03.281Z,101331.88
2022-09-02T20:05:29.891Z,101334.13
2022-09-02T20:07:56.520Z,101341.00
2022-09-02T20:10:28.069Z,101333.03
2022-09-02T20:12:56.916Z,101334.88
2022-09-02T20:15:23.465Z,101338.22
2022-09-02T20:17:50.096Z,101342.56
2022-09-02T20:20:19.366Z,101338.66
2022-09-02T20:22:55.178Z,101339.88
2022-09-02T20:25:31.203Z,101333.00
2022-09-02T20:28:16.227Z,101340.13
2022-09-02T20:30:46.901Z,101344.31
2022-09-02T20:33:19.570Z,101338.53
2022-09-02T20:35:52.187Z,101343.91
2022-09-02T20:38:46.081Z,101347.03
2022-09-02T20:41:47.056Z,101345.94
2022-09-02T20:44:38.579Z,101344.63
2022-09-02T20:47:27.598Z,101353.06
2022-09-02T20:50:02.939Z,101355.44
2022-09-02T20:52:44.545Z,101350.47
2022-09-02T20:55:25.904Z,101353.44
2022-09-02T20:57:52.427Z,101352.88
2022-09-02T21:00:22.703Z,101360.25
2022-09-02T21:02:55.526Z,101358.09
2022-09-02T21:05:43.834Z,101356.16
2022-09-02T21:08:24.395Z,101360.66
2022-09-02T21:11:01.215Z,101360.00
2022-09-02T21:13:49.989Z,101363.03
2022-09-02T21:16:34.592Z,101364.34
2022-09-02T21:19:29.412Z,101354.13
2022-09-02T21:22:03.311Z,101354.31
2022-09-02T21:24:39.653Z,101356.34
2022-09-02T21:27:19.481Z,101367.50
2022-09-02T21:29:53.725Z,101369.22
2022-09-02T21:32:32.651Z,101371.38
2022-09-02T21:35:17.294Z,101371.72
2022-09-02T21:37:45.195Z,101366.88
2022-09-02T21:40:19.132Z,101360.28
2022-09-02T21:43:27.085Z,101361.47
2022-09-02T21:45:56.421Z,101368.09
2022-09-02T21:48:32.210Z,101365.59
2022-09-02T21:51:01.019Z,101358.81
2022-09-02T21:53:53.765Z,101356.63
2022-09-02T21:56:41.260Z,101355.47
2022-09-02T21:59:32.273Z,101351.06
2022-09-02T22:02:10.411Z,101353.66
2022-09-02T22:04:48.697Z,101359.41
2022-09-02T22:07:25.647Z,101360.44
2022-09-02T22:10:19.666Z,101361.81
2022-09-02T22:12:52.525Z,101352.66
2022-09-02T22:15:35.101Z,101359.91
2022-09-02T22:18:10.947Z,101360.31
2022-09-02T22:20:42.302Z,101361.84
2022-09-02T22:23:23.381Z,101371.47
2022-09-02T22:25:52.736Z,101364.72
2022-09-02T22:28:39.295Z,101362.84
2022-09-02T22:31:12.673Z,101361.19
2022-09-02T22:33:51.332Z,101355.09
2022-09-02T22:36:49.638Z,101358.13
2022-09-02T22:39:17.477Z,101369.44
2022-09-02T22:41:55.523Z,101364.34
2022-09-02T22:44:58.719Z,101364.22
2022-09-02T22:47:43.912Z,101368.44
2022-09-02T22:50:34.718Z,101357.63
2022-09-02T22:53:01.288Z,101365.72
2022-09-02T22:55:38.258Z,101363.53
2022-09-02T22:58:16.038Z,101363.38
2022-09-02T23:00:51.202Z,101361.19
2022-09-02T23:03:36.551Z,101348.88
2022-09-02T23:06:14.871Z,101348.38
2022-09-02T23:08:43.849Z,101347.03
2022-09-02T23:11:30.857Z,101346.00
2022-09-02T23:14:35.545Z,101354.25
2022-09-02T23:17:07.917Z,101347.16
2022-09-02T23:19:56.247Z,101347.19
2022-09-02T23:22:41.900Z,101346.69
2022-09-02T23:25:37.678Z,101336.88
2022-09-02T23:28:15.427Z,101333.00
2022-09-02T23:30:52.550Z,101336.38
2022-09-02T23:33:38.973Z,101325.59
2022-09-02T23:36:21.508Z,101336.72
2022-09-02T23:39:06.092Z,101330.31
2022-09-02T23:41:36.165Z,101329.41
2022-09-02T23:44:06.768Z,101328.63
2022-09-02T23:46:39.429Z,101332.31
2022-09-02T23:49:36.228Z,101324.53
2022-09-02T23:52:21.977Z,101324.16
2022-09-02T23:55:19.509Z,101326.19
2022-09-02T23:58:23.017Z,101320.28
